Time;durP1;ratioP1;P1;durP2;ratioP2;P2;SDS_P1;SDS_P2;PMS_P1;PMS_P2;Temp;Humidity;BMP_temperature;BMP_pressure;BME280_temperature;BME280_humidity;BME280_pressure;Samples;Min_cycle;Max_cycle;Signal;HPM_P1;HPM_P2
2024/01/28 00:01:36;;;;;;;5.57;2.85;;;6.80;97.70;;;;;;5008277;28;20030;-50
2024/01/28 00:04:14;;;;;;;7.72;3.60;;;6.70;97.50;;;;;;5008300;28;20030;-49
2024/01/28 00:06:40;;;;;;;8.07;3.20;;;6.70;97.70;;;;;;5008395;28;20034;-50
2024/01/28 00:09:06;;;;;;;6.68;3.70;;;6.70;97.60;;;;;;5063122;28;20047;-48
2024/01/28 00:11:31;;;;;;;7.25;3.33;;;6.70;97.60;;;;;;5018518;28;20040;-50
2024/01/28 00:13:57;;;;;;;5.95;3.00;;;6.70;97.50;;;;;;5070739;28;20031;-48
2024/01/28 00:16:23;;;;;;;6.55;3.25;;;6.70;97.70;;;;;;5018633;28;20068;-48
2024/01/28 00:18:48;;;;;;;7.20;3.33;;;6.60;97.90;;;;;;5069994;28;20095;-51
2024/01/28 00:21:14;;;;;;;9.02;3.65;;;6.60;97.90;;;;;;5070483;28;20042;-49
2024/01/28 00:23:40;;;;;;;6.28;3.33;;;6.60;98.00;;;;;;5070503;28;20036;-51
2024/01/28 00:26:07;;;;;;;7.13;3.45;;;6.50;98.20;;;;;;5069992;28;20369;-51
2024/01/28 00:28:32;;;;;;;8.48;3.58;;;6.50;98.30;;;;;;5070525;28;20103;-49
2024/01/28 00:30:59;;;;;;;8.00;3.53;;;;;;;;;;5070454;28;20159;-50
2024/01/28 00:33:24;;;;;;;6.32;4.03;;;6.40;98.30;;;;;;5070214;28;20039;-48
2024/01/28 00:35:50;;;;;;;7.80;3.70;;;6.40;98.60;;;;;;5070101;28;20040;-51
2024/01/28 00:38:16;;;;;;;5.18;3.53;;;6.30;98.80;;;;;;5069986;28;20035;-49
2024/01/28 00:40:41;;;;;;;7.68;3.65;;;6.20;99.00;;;;;;5070149;28;20028;-50
2024/01/28 00:43:07;;;;;;;7.43;3.78;;;6.20;99.20;;;;;;5070143;28;20029;-48
2024/01/28 00:45:33;;;;;;;7.75;4.00;;;6.00;99.40;;;;;;5069891;28;20032;-49
2024/01/28 00:47:59;;;;;;;7.78;3.50;;;5.90;99.90;;;;;;5069908;28;20059;-49
2024/01/28 00:50:25;;;;;;;6.05;3.63;;;5.80;99.90;;;;;;5070957;28;20025;-50
2024/01/28 00:52:51;;;;;;;7.72;3.42;;;5.80;99.90;;;;;;5073804;28;20024;-51
2024/01/28 00:55:16;;;;;;;7.15;3.78;;;5.80;99.90;;;;;;5021449;28;20098;-49
2024/01/28 00:57:42;;;;;;;7.32;4.18;;;5.70;99.90;;;;;;5073447;28;20029;-49
2024/01/28 01:00:09;;;;;;;7.18;3.83;;;5.80;99.90;;;;;;5037769;28;20060;-48
2024/01/28 01:02:35;;;;;;;6.72;3.60;;;5.80;99.90;;;;;;5073521;28;20067;-48
2024/01/28 01:05:00;;;;;;;9.73;4.72;;;5.70;99.90;;;;;;5037758;28;20453;-49
2024/01/28 01:07:27;;;;;;;7.38;4.80;;;5.80;99.90;;;;;;5021082;28;20391;-48
2024/01/28 01:09:52;;;;;;;9.57;4.25;;;5.80;99.90;;;;;;5073215;28;20027;-48
2024/01/28 01:12:18;;;;;;;7.57;3.95;;;5.80;99.90;;;;;;5073470;28;20025;-49
2024/01/28 01:14:44;;;;;;;8.43;4.03;;;5.70;99.90;;;;;;5073132;28;20079;-50
2024/01/28 01:17:10;;;;;;;6.53;3.90;;;5.80;99.90;;;;;;5020898;28;20040;-49
2024/01/28 01:19:35;;;;;;;8.57;4.07;;;5.80;99.90;;;;;;5073068;28;20028;-50
2024/01/28 01:22:02;;;;;;;8.48;4.25;;;5.90;99.80;;;;;;5073092;28;20056;-51
2024/01/28 01:24:31;;;;;;;10.15;4.25;;;5.90;99.60;;;;;;5072987;28;20059;-48
2024/01/28 01:26:56;;;;;;;10.57;5.70;;;5.90;99.60;;;;;;5073160;28;20028;-50
2024/01/28 01:29:22;;;;;;;9.18;4.47;;;5.90;99.80;;;;;;5073025;28;20028;-48
2024/01/28 01:31:48;;;;;;;9.32;4.22;;;5.90;99.90;;;;;;5004290;28;20068;-50
2024/01/28 01:34:14;;;;;;;10.23;4.18;;;5.90;99.90;;;;;;5073002;28;20037;-49
2024/01/28 01:36:46;;;;;;;8.23;4.85;;;5.80;99.90;;;;;;5072784;28;20032;-49
2024/01/28 01:39:16;;;;;;;7.13;4.50;;;5.80;99.90;;;;;;5006012;28;20562;-49
2024/01/28 01:41:43;;;;;;;9.23;4.57;;;5.60;99.90;;;;;;5052606;28;20532;-51
2024/01/28 01:44:09;;;;;;;10.43;4.55;;;5.60;99.90;;;;;;5052951;28;20375;-49
2024/01/28 01:46:35;;;;;;;9.50;5.35;;;5.60;99.90;;;;;;5052538;28;20538;-49
2024/01/28 01:49:02;;;;;;;9.48;5.05;;;5.50;99.90;;;;;;5033658;28;20053;-51
2024/01/28 01:51:29;;;;;;;10.00;4.30;;;5.50;99.90;;;;;;5052486;28;20035;-50
2024/01/28 01:53:55;;;;;;;8.27;4.70;;;5.60;99.90;;;;;;5017107;28;20041;-49
2024/01/28 01:56:22;;;;;;;11.32;4.43;;;5.60;99.90;;;;;;5052598;28;20385;-49
2024/01/28 01:58:48;;;;;;;8.07;3.67;;;5.60;99.90;;;;;;5052348;28;20029;-49
2024/01/28 02:01:16;;;;;;;8.48;4.55;;;5.60;99.90;;;;;;5052011;28;20515;-48
2024/01/28 02:03:42;;;;;;;10.27;4.22;;;5.50;99.90;;;;;;5052543;28;20707;-48
2024/01/28 02:06:11;;;;;;;7.15;3.70;;;5.60;99.90;;;;;;5032913;28;20496;-47
2024/01/28 02:08:37;;;;;;;8.82;3.90;;;5.60;99.90;;;;;;4977196;28;20395;-50
2024/01/28 02:11:05;;;;;;;6.55;3.75;;;5.70;99.90;;;;;;5010283;28;20120;-51
2024/01/28 02:13:30;;;;;;;7.00;3.63;;;5.70;99.90;;;;;;5009879;28;20046;-50
2024/01/28 02:15:56;;;;;;;6.47;3.88;;;5.50;99.90;;;;;;4993431;28;20077;-49
2024/01/28 02:18:22;;;;;;;8.25;3.78;;;5.40;99.90;;;;;;5009946;28;20599;-49
2024/01/28 02:20:47;;;;;;;10.20;4.00;;;5.40;99.90;;;;;;4976815;28;20615;-48
2024/01/28 02:23:23;;;;;;;11.70;4.63;;;5.30;99.90;;;;;;4993363;28;20054;-50
2024/01/28 02:25:49;;;;;;;8.07;3.63;;;5.30;99.90;;;;;;4959276;28;20405;-48
2024/01/28 02:28:16;;;;;;;7.65;3.95;;;5.30;99.90;;;;;;4994784;28;20077;-50
2024/01/28 02:30:42;;;;;;;9.93;4.13;;;5.30;99.90;;;;;;4980437;28;20050;-50
2024/01/28 02:33:08;;;;;;;9.27;4.20;;;5.30;99.90;;;;;;4990116;28;20097;-51
2024/01/28 02:35:34;;;;;;;9.55;4.00;;;5.40;99.90;;;;;;4990022;28;20034;-50
2024/01/28 02:37:59;;;;;;;8.27;4.30;;;5.40;99.90;;;;;;4998599;28;20450;-50
2024/01/28 02:40:25;;;;;;;8.82;4.25;;;5.30;99.90;;;;;;5054750;28;20028;-49
2024/01/28 02:42:51;;;;;;;9.30;3.67;;;5.30;99.90;;;;;;5019372;28;20033;-50
2024/01/28 02:45:18;;;;;;;9.02;3.80;;;5.20;99.90;;;;;;5068585;28;20028;-49
2024/01/28 02:47:44;;;;;;;7.28;3.70;;;5.10;99.90;;;;;;5051127;28;20620;-47
2024/01/28 02:50:09;;;;;;;9.63;4.25;;;5.00;99.90;;;;;;5051646;28;20025;-48
2024/01/28 02:52:35;;;;;;;12.00;3.55;;;5.00;99.90;;;;;;5051623;28;20025;-51
2024/01/28 02:55:01;;;;;;;9.43;3.70;;;5.00;99.90;;;;;;5015848;28;20049;-49
2024/01/28 02:57:27;;;;;;;10.10;3.85;;;5.00;99.90;;;;;;5051388;28;20550;-49
2024/01/28 02:59:52;;;;;;;7.38;3.70;;;5.00;99.90;;;;;;5051205;28;20491;-49
2024/01/28 03:02:18;;;;;;;5.97;3.80;;;5.00;99.90;;;;;;5051091;28;20033;-51
2024/01/28 03:04:44;;;;;;;7.82;4.07;;;5.00;99.90;;;;;;5015634;28;20032;-50
2024/01/28 03:07:10;;;;;;;7.28;3.63;;;5.00;99.90;;;;;;5051333;28;20033;-51
2024/01/28 03:09:36;;;;;;;8.60;4.03;;;5.00;99.90;;;;;;4999834;28;20041;-50
2024/01/28 03:12:02;;;;;;;6.32;4.25;;;5.00;99.90;;;;;;5051241;28;20032;-47
2024/01/28 03:14:28;;;;;;;7.90;3.90;;;4.90;99.90;;;;;;5050578;28;20051;-48
2024/01/28 03:16:53;;;;;;;9.35;3.92;;;4.90;99.90;;;;;;5050792;28;20055;-47
2024/01/28 03:19:19;;;;;;;9.88;3.95;;;4.70;99.90;;;;;;5051104;28;20063;-48
2024/01/28 03:21:45;;;;;;;9.68;4.07;;;4.90;99.90;;;;;;5050869;28;20396;-48
2024/01/28 03:24:11;;;;;;;7.18;3.80;;;4.90;99.90;;;;;;5050899;28;20025;-48
2024/01/28 03:26:37;;;;;;;6.53;4.15;;;4.90;99.90;;;;;;4999118;28;20087;-47
2024/01/28 03:29:04;;;;;;;5.93;3.45;;;4.90;99.90;;;;;;5050769;28;20056;-48
2024/01/28 03:31:30;;;;;;;6.63;3.78;;;4.90;99.90;;;;;;5051126;28;20079;-50
2024/01/28 03:33:57;;;;;;;8.95;3.70;;;5.00;99.90;;;;;;5050751;28;20064;-50
2024/01/28 03:36:23;;;;;;;6.38;3.95;;;5.00;99.90;;;;;;5050916;28;20645;-47
2024/01/28 03:38:49;;;;;;;9.85;3.80;;;5.00;99.90;;;;;;5050787;28;20036;-49
2024/01/28 03:41:15;;;;;;;10.82;4.45;;;5.10;99.90;;;;;;5050784;28;20028;-50
2024/01/28 03:43:46;;;;;;;6.32;3.50;;;5.10;99.90;;;;;;5051232;28;20029;-49
2024/01/28 03:46:12;;;;;;;8.00;4.05;;;5.10;99.90;;;;;;5050547;28;20045;-47
2024/01/28 03:48:38;;;;;;;8.00;3.97;;;5.10;99.90;;;;;;5050434;28;20547;-48
2024/01/28 03:51:04;;;;;;;8.73;4.10;;;5.10;99.90;;;;;;5050934;28;20056;-49
2024/01/28 03:53:30;;;;;;;8.23;3.35;;;5.20;99.90;;;;;;5050821;28;20481;-48
2024/01/28 03:55:55;;;;;;;7.07;3.78;;;5.30;99.90;;;;;;5050510;28;20033;-51
2024/01/28 03:58:21;;;;;;;9.13;3.97;;;5.30;99.90;;;;;;4998941;28;20037;-50
2024/01/28 04:00:47;;;;;;;10.93;4.88;;;5.30;99.90;;;;;;4998835;28;20044;-48
2024/01/28 04:03:13;;;;;;;8.48;4.72;;;5.30;99.90;;;;;;5014951;28;20037;-48
2024/01/28 04:05:39;;;;;;;8.52;4.70;;;5.20;99.90;;;;;;5050374;28;20033;-49
2024/01/28 04:08:08;;;;;;;10.43;4.63;;;5.20;99.90;;;;;;5031637;28;20041;-48
2024/01/28 04:10:34;;;;;;;7.53;4.57;;;5.20;99.90;;;;;;5050368;28;20166;-49
2024/01/28 04:13:00;;;;;;;11.13;4.63;;;5.20;99.90;;;;;;4998736;28;20494;-51
2024/01/28 04:15:25;;;;;;;11.32;4.40;;;5.20;99.90;;;;;;5050647;28;20043;-50
2024/01/28 04:17:51;;;;;;;7.80;4.20;;;5.20;99.90;;;;;;5050287;28;20025;-49
2024/01/28 04:20:18;;;;;;;10.48;4.90;;;5.20;99.90;;;;;;4998672;28;20132;-48
2024/01/28 04:22:43;;;;;;;8.35;3.95;;;5.10;99.90;;;;;;5050136;28;20399;-50
2024/01/28 04:25:09;;;;;;;8.45;4.05;;;5.00;99.90;;;;;;5052423;28;20103;-48
2024/01/28 04:27:35;;;;;;;9.65;4.50;;;5.00;99.90;;;;;;5054194;28;20060;-50
2024/01/28 04:30:01;;;;;;;7.32;4.20;;;5.00;99.90;;;;;;5051888;28;20065;-48
2024/01/28 04:32:26;;;;;;;11.00;3.85;;;5.00;99.90;;;;;;5002329;28;20158;-51
2024/01/28 04:34:52;;;;;;;9.45;4.32;;;5.00;99.90;;;;;;5054049;28;20055;-49
2024/01/28 04:37:18;;;;;;;12.13;4.78;;;5.00;99.90;;;;;;5053745;28;20091;-49
2024/01/28 04:39:44;;;;;;;8.43;4.50;;;5.00;99.90;;;;;;5054226;28;20029;-49
2024/01/28 04:42:10;;;;;;;8.23;4.20;;;5.00;99.90;;;;;;5054163;28;20469;-48
2024/01/28 04:44:36;;;;;;;7.43;4.85;;;5.00;99.90;;;;;;5054044;28;20037;-50
2024/01/28 04:47:02;;;;;;;7.30;4.10;;;5.00;99.90;;;;;;5053689;28;20036;-48
2024/01/28 04:49:28;;;;;;;8.55;5.20;;;5.00;99.90;;;;;;5001762;28;20361;-47
2024/01/28 04:51:54;;;;;;;7.13;4.10;;;5.00;99.90;;;;;;5001902;28;20065;-48
2024/01/28 04:54:20;;;;;;;11.60;4.38;;;5.00;99.90;;;;;;5053588;28;20052;-50
2024/01/28 04:56:46;;;;;;;9.48;4.05;;;4.90;99.90;;;;;;5053649;28;20088;-51
2024/01/28 04:59:11;;;;;;;7.80;4.38;;;4.80;99.90;;;;;;5017913;28;20404;-50
2024/01/28 05:01:37;;;;;;;10.98;5.70;;;4.80;99.90;;;;;;5053510;28;20098;-50
2024/01/28 05:04:04;;;;;;;11.52;4.35;;;;;;;;;;5053345;28;20100;-51
2024/01/28 05:06:36;;;;;;;7.63;3.85;;;;;;;;;;5053305;28;20049;-49
2024/01/28 05:09:08;;;;;;;11.52;4.32;;;4.70;99.90;;;;;;5053556;28;20392;-51
2024/01/28 05:11:33;;;;;;;8.48;3.58;;;4.50;99.90;;;;;;5053132;28;20044;-47
2024/01/28 05:13:59;;;;;;;8.57;3.63;;;4.50;99.90;;;;;;5017671;28;20029;-48
2024/01/28 05:16:25;;;;;;;8.45;4.03;;;4.40;99.90;;;;;;5053579;28;20037;-48
2024/01/28 05:18:51;;;;;;;9.27;4.20;;;4.50;99.90;;;;;;5001395;28;20553;-48
2024/01/28 05:21:18;;;;;;;10.48;5.07;;;4.50;99.90;;;;;;5064230;28;20108;-49
2024/01/28 05:23:47;;;;;;;9.05;4.18;;;4.40;99.90;;;;;;5073420;28;20116;-50
2024/01/28 05:26:14;;;;;;;6.05;3.40;;;4.40;99.90;;;;;;5020799;28;20033;-49
2024/01/28 05:28:40;;;;;;;8.95;4.63;;;4.40;99.90;;;;;;5072703;28;20028;-48
2024/01/28 05:31:08;;;;;;;10.68;4.47;;;4.40;99.90;;;;;;5073079;28;20109;-50
2024/01/28 05:33:37;;;;;;;8.98;4.38;;;4.40;99.90;;;;;;5036927;28;20086;-49
2024/01/28 05:36:14;;;;;;;9.25;4.03;;;4.40;99.90;;;;;;5072004;28;20051;-51
2024/01/28 05:38:40;;;;;;;9.02;3.70;;;4.50;99.90;;;;;;5036995;28;20119;-49
2024/01/28 05:41:07;;;;;;;6.88;3.50;;;4.50;99.90;;;;;;5072916;28;20024;-48
2024/01/28 05:43:33;;;;;;;9.43;3.67;;;4.40;99.90;;;;;;5072526;28;20039;-48
2024/01/28 05:46:03;;;;;;;10.50;4.85;;;4.40;99.90;;;;;;5072591;28;20028;-47
2024/01/28 05:48:29;;;;;;;9.23;5.03;;;3.90;99.90;;;;;;5072582;28;20052;-48
2024/01/28 05:50:55;;;;;;;14.50;7.32;;;4.20;99.90;;;;;;5072528;28;20036;-49
2024/01/28 05:53:20;;;;;;;9.55;5.90;;;4.50;99.90;;;;;;5036841;28;20040;-50
2024/01/28 05:55:46;;;;;;;9.00;5.65;;;4.20;99.90;;;;;;5072289;28;20384;-48
2024/01/28 05:58:12;;;;;;;9.68;3.80;;;4.20;99.90;;;;;;5072512;28;20103;-50
2024/01/28 06:00:38;;;;;;;8.73;5.72;;;4.20;99.90;;;;;;5070446;28;20029;-50
2024/01/28 06:03:04;;;;;;;10.10;5.75;;;4.10;99.90;;;;;;5016672;28;20432;-47
2024/01/28 06:05:29;;;;;;;13.63;7.38;;;4.10;99.90;;;;;;5000555;28;20037;-50
2024/01/28 06:07:55;;;;;;;12.43;6.80;;;4.10;99.90;;;;;;5000662;28;20047;-48
2024/01/28 06:10:21;;;;;;;11.95;5.60;;;4.10;99.90;;;;;;5034263;28;20455;-49
2024/01/28 06:12:47;;;;;;;10.93;5.53;;;4.10;99.90;;;;;;5052021;28;20037;-50
2024/01/28 06:15:12;;;;;;;10.63;5.95;;;4.20;99.90;;;;;;5052111;28;20029;-48
2024/01/28 06:17:39;;;;;;;8.52;4.82;;;4.20;99.90;;;;;;5000393;28;20119;-48
2024/01/28 06:20:07;;;;;;;9.43;5.18;;;4.20;99.90;;;;;;5057582;28;20036;-47
2024/01/28 06:22:33;;;;;;;9.07;4.75;;;4.20;99.90;;;;;;5071419;28;20024;-48
2024/01/28 06:25:00;;;;;;;11.18;5.65;;;4.20;99.90;;;;;;5071969;28;20016;-50
2024/01/28 06:27:25;;;;;;;10.13;5.25;;;4.10;99.90;;;;;;5036165;28;20040;-49
2024/01/28 06:29:52;;;;;;;11.10;5.85;;;4.10;99.90;;;;;;5071629;28;20487;-49
2024/01/28 06:32:18;;;;;;;11.77;6.25;;;4.20;99.90;;;;;;5071934;28;20037;-47
2024/01/28 06:34:44;;;;;;;11.10;6.28;;;4.10;99.90;;;;;;5071520;28;20753;-48
2024/01/28 06:37:10;;;;;;;14.77;6.32;;;4.40;99.90;;;;;;5071796;28;20029;-47
2024/01/28 06:39:36;;;;;;;12.85;5.47;;;4.20;99.90;;;;;;5063416;28;20476;-49
2024/01/28 06:42:01;;;;;;;5.32;3.58;;;4.30;99.90;;;;;;5051545;28;20108;-49
2024/01/28 06:44:27;;;;;;;7.55;3.95;;;4.30;99.90;;;;;;5051506;28;20641;-47
2024/01/28 06:46:53;;;;;;;10.52;5.30;;;4.30;99.90;;;;;;5051116;28;20396;-48
2024/01/28 06:49:20;;;;;;;9.30;4.80;;;4.20;99.90;;;;;;5051411;28;20033;-47
2024/01/28 06:51:45;;;;;;;11.73;4.72;;;4.30;99.90;;;;;;5051378;28;20037;-48
2024/01/28 06:54:11;;;;;;;8.27;4.00;;;4.20;99.90;;;;;;5015980;28;20099;-48
2024/01/28 06:56:37;;;;;;;9.25;4.85;;;4.40;99.90;;;;;;5015684;28;20049;-48
2024/01/28 06:59:03;;;;;;;7.38;4.78;;;4.40;99.90;;;;;;5051470;28;20087;-49
2024/01/28 07:01:29;;;;;;;8.02;4.40;;;4.50;99.90;;;;;;4999568;28;20033;-49
2024/01/28 07:03:55;;;;;;;14.80;6.78;;;4.40;99.90;;;;;;5051423;28;20060;-48
2024/01/28 07:06:21;;;;;;;13.63;8.18;;;4.40;99.90;;;;;;5051192;28;20037;-50
2024/01/28 07:08:47;;;;;;;6.60;4.45;;;4.50;99.90;;;;;;4999178;28;20538;-50
2024/01/28 07:11:12;;;;;;;9.25;3.85;;;4.50;99.90;;;;;;5051066;28;20025;-50
2024/01/28 07:13:40;;;;;;;7.95;4.30;;;4.50;99.90;;;;;;5063381;28;20029;-48
2024/01/28 07:16:06;;;;;;;9.27;5.78;;;4.50;99.90;;;;;;5071032;28;20128;-50
2024/01/28 07:18:32;;;;;;;14.32;8.20;;;4.50;99.90;;;;;;5068968;28;20657;-48
2024/01/28 07:20:59;;;;;;;8.73;4.63;;;4.60;99.90;;;;;;5070832;28;20446;-49
2024/01/28 07:23:25;;;;;;;7.88;4.68;;;4.60;99.90;;;;;;5071327;28;20384;-48
2024/01/28 07:25:50;;;;;;;6.53;4.03;;;4.70;99.90;;;;;;5070671;28;20083;-50
2024/01/28 07:28:16;;;;;;;9.60;4.07;;;4.80;99.90;;;;;;5071078;28;20675;-47
2024/01/28 07:30:43;;;;;;;14.57;5.85;;;4.70;99.90;;;;;;5070790;28;20024;-50
2024/01/28 07:33:08;;;;;;;9.95;5.50;;;4.80;99.90;;;;;;5018797;28;20098;-50
2024/01/28 07:35:34;;;;;;;8.45;5.40;;;4.80;99.90;;;;;;5064570;28;20436;-48
2024/01/28 07:38:00;;;;;;;9.20;4.68;;;4.80;99.90;;;;;;5059377;28;20104;-51
2024/01/28 07:40:26;;;;;;;14.40;9.32;;;4.90;99.90;;;;;;4998949;28;20086;-48
2024/01/28 07:42:55;;;;;;;17.27;10.40;;;5.00;99.90;;;;;;5018435;28;20530;-49
2024/01/28 07:45:21;;;;;;;58.33;39.50;;;5.00;99.90;;;;;;5070864;28;20511;-51
2024/01/28 07:47:46;;;;;;;41.90;27.73;;;5.00;99.90;;;;;;5070559;28;20048;-48
2024/01/28 07:50:12;;;;;;;20.63;13.23;;;5.00;99.90;;;;;;5070456;28;20419;-50
2024/01/28 07:52:40;;;;;;;9.82;7.07;;;;;;;;;;5027990;28;20053;-49
2024/01/28 07:55:07;;;;;;;10.75;5.85;;;5.30;99.90;;;;;;5005844;28;20123;-48
2024/01/28 07:57:32;;;;;;;9.85;5.10;;;5.30;99.90;;;;;;5005024;28;20094;-48
2024/01/28 07:59:58;;;;;;;9.90;6.00;;;5.50;99.90;;;;;;5060711;28;20029;-50
2024/01/28 08:02:24;;;;;;;12.02;5.75;;;5.50;99.90;;;;;;5066061;28;20039;-48
2024/01/28 08:04:49;;;;;;;15.35;4.95;;;5.50;99.90;;;;;;5014621;28;20041;-49
2024/01/28 08:07:15;;;;;;;7.90;4.60;;;5.30;99.90;;;;;;5066664;28;20075;-51
2024/01/28 08:09:41;;;;;;;10.80;5.40;;;5.40;99.90;;;;;;5024144;28;20071;-50
2024/01/28 08:12:08;;;;;;;8.98;4.25;;;;;;;;;;5056233;28;20047;-51
2024/01/28 08:14:33;;;;;;;15.30;5.85;;;5.60;99.90;;;;;;5004948;28;20033;-48
2024/01/28 08:16:59;;;;;;;13.18;7.45;;;5.80;99.90;;;;;;5056192;28;20040;-48
2024/01/28 08:19:25;;;;;;;10.93;5.30;;;5.80;99.90;;;;;;5065776;28;20056;-51
2024/01/28 08:21:51;;;;;;;9.13;6.65;;;5.90;99.90;;;;;;5058291;28;20044;-49
2024/01/28 08:24:17;;;;;;;12.15;4.75;;;5.90;99.90;;;;;;5014264;28;20049;-51
2024/01/28 08:26:43;;;;;;;12.65;5.57;;;5.90;99.90;;;;;;5060658;28;20035;-50
2024/01/28 08:29:08;;;;;;;19.90;7.03;;;6.10;99.90;;;;;;5063512;28;20068;-50
2024/01/28 08:31:34;;;;;;;12.73;5.65;;;6.30;99.90;;;;;;5061429;28;20064;-50
2024/01/28 08:34:00;;;;;;;15.45;6.13;;;6.30;99.90;;;;;;5063917;28;20029;-49
2024/01/28 08:36:27;;;;;;;17.42;6.75;;;6.50;99.90;;;;;;5061274;28;20033;-53
2024/01/28 08:38:52;;;;;;;9.43;5.05;;;6.60;99.90;;;;;;5007130;28;20033;-53
2024/01/28 08:41:18;;;;;;;11.98;5.97;;;6.70;99.90;;;;;;5073805;28;20082;-51
2024/01/28 08:43:44;;;;;;;9.52;5.03;;;7.30;99.90;;;;;;5038155;28;20044;-51
2024/01/28 08:46:10;;;;;;;14.73;5.20;;;7.40;99.90;;;;;;5073648;28;20024;-52
2024/01/28 08:48:37;;;;;;;12.27;4.75;;;7.50;99.90;;;;;;5073459;28;20522;-50
2024/01/28 08:51:02;;;;;;;11.02;4.53;;;7.20;99.90;;;;;;5038415;28;20051;-52
2024/01/28 08:53:29;;;;;;;8.73;4.70;;;7.30;99.90;;;;;;5068571;28;20036;-53
2024/01/28 08:55:55;;;;;;;9.65;4.22;;;7.40;99.90;;;;;;5070816;28;20048;-52
2024/01/28 08:58:21;;;;;;;10.20;4.82;;;7.40;99.90;;;;;;5071198;28;20033;-52
2024/01/28 09:00:47;;;;;;;15.90;8.73;;;7.10;99.90;;;;;;5013344;28;20127;-53
2024/01/28 09:03:12;;;;;;;10.85;5.22;;;7.60;99.90;;;;;;5059036;28;20036;-52
2024/01/28 09:05:38;;;;;;;19.80;9.80;;;7.50;99.90;;;;;;5061975;28;20036;-51
2024/01/28 09:08:04;;;;;;;9.18;5.75;;;7.60;99.90;;;;;;5061867;28;20041;-51
2024/01/28 09:10:29;;;;;;;11.70;5.78;;;7.80;99.90;;;;;;5062630;28;20024;-51
2024/01/28 09:12:55;;;;;;;7.13;4.82;;;8.00;99.90;;;;;;5070295;28;20032;-50
2024/01/28 09:15:23;;;;;;;11.25;4.88;;;8.10;99.90;;;;;;5061163;28;20396;-49
2024/01/28 09:17:48;;;;;;;9.20;4.15;;;7.90;99.90;;;;;;5010037;28;20047;-48
2024/01/28 09:20:14;;;;;;;9.85;4.07;;;7.90;99.90;;;;;;5005792;28;20049;-50
2024/01/28 09:22:40;;;;;;;8.85;5.38;;;8.00;99.90;;;;;;5034380;28;20040;-49
2024/01/28 09:25:06;;;;;;;6.60;3.33;;;8.00;99.90;;;;;;5053124;28;20060;-51
2024/01/28 09:27:32;;;;;;;15.88;6.72;;;7.70;99.90;;;;;;5054633;28;20109;-49
2024/01/28 09:29:58;;;;;;;9.90;4.00;;;7.70;99.90;;;;;;5057767;28;20033;-52
2024/01/28 09:32:24;;;;;;;10.00;3.92;;;7.60;99.90;;;;;;5057192;28;20396;-51
2024/01/28 09:34:51;;;;;;;19.13;10.10;;;7.80;99.90;;;;;;5043545;28;20036;-48
2024/01/28 09:37:18;;;;;;;11.57;4.70;;;7.80;99.90;;;;;;5055327;28;20120;-50
2024/01/28 09:39:47;;;;;;;10.25;4.70;;;7.70;99.90;;;;;;5053268;28;20111;-48
2024/01/28 09:42:15;;;;;;;10.48;4.35;;;7.70;99.90;;;;;;5035277;28;20041;-53
2024/01/28 09:44:41;;;;;;;8.82;4.07;;;7.70;99.90;;;;;;5058102;28;20472;-50
2024/01/28 09:47:08;;;;;;;11.30;7.00;;;7.90;99.90;;;;;;5062622;28;20029;-51
2024/01/28 09:49:39;;;;;;;83.65;37.80;;;7.50;99.90;;;;;;5060349;28;20028;-52
2024/01/28 09:52:10;;;;;;;26.10;12.00;;;7.20;99.90;;;;;;5063414;28;20824;-52
2024/01/28 09:54:37;;;;;;;17.85;8.88;;;7.40;99.90;;;;;;5058846;28;20039;-52
2024/01/28 09:57:05;;;;;;;98.63;33.17;;;7.60;99.90;;;;;;5043187;28;20454;-50
2024/01/28 09:59:35;;;;;;;50.30;18.27;;;7.60;99.90;;;;;;5062403;28;20384;-48
2024/01/28 10:02:02;;;;;;;253.77;76.75;;;7.60;99.90;;;;;;5068061;28;20043;-53
2024/01/28 10:04:29;;;;;;;37.75;15.27;;;7.40;99.90;;;;;;5058471;28;20033;-49
2024/01/28 10:06:57;;;;;;;18.38;7.95;;;7.50;99.90;;;;;;5059610;28;20037;-51
2024/01/28 10:09:24;;;;;;;348.10;107.32;;;7.70;99.90;;;;;;5042108;28;20124;-51
2024/01/28 10:11:51;;;;;;;35.20;13.10;;;7.80;99.90;;;;;;5061109;28;20483;-52
2024/01/28 10:14:17;;;;;;;28.58;9.27;;;7.70;99.70;;;;;;5063572;28;20017;-51
2024/01/28 10:16:47;;;;;;;206.13;67.70;;;7.70;99.70;;;;;;5059209;28;20045;-51
2024/01/28 10:19:13;;;;;;;19.42;11.10;;;7.40;99.90;;;;;;5063048;28;20318;-55
2024/01/28 10:21:39;;;;;;;26.70;9.77;;;7.50;99.90;;;;;;5060631;28;20040;-49
2024/01/28 10:24:05;;;;;;;28.13;10.02;;;7.60;99.90;;;;;;5024224;28;20252;-52
2024/01/28 10:26:32;;;;;;;60.03;20.80;;;7.30;99.90;;;;;;5046114;28;20396;-51
2024/01/28 10:28:58;;;;;;;78.15;27.80;;;7.50;99.90;;;;;;5056871;28;20118;-50
2024/01/28 10:31:24;;;;;;;88.60;36.60;;;7.30;99.90;;;;;;5058009;28;20602;-50
2024/01/28 10:33:50;;;;;;;31.80;16.00;;;7.70;99.90;;;;;;5009508;28;20120;-53
2024/01/28 10:36:17;;;;;;;17.52;10.38;;;7.80;99.90;;;;;;5015477;28;20053;-52
2024/01/28 10:38:45;;;;;;;26.25;13.45;;;8.00;99.90;;;;;;5017416;28;20056;-52
2024/01/28 10:41:17;;;;;;;14.82;6.68;;;8.10;99.60;;;;;;5013414;28;20797;-52
2024/01/28 10:43:52;;;;;;;12.30;4.78;;;8.00;99.90;;;;;;5009264;28;20038;-51
2024/01/28 10:46:24;;;;;;;27.30;11.02;;;8.20;99.90;;;;;;5021205;28;20037;-50
2024/01/28 10:48:53;;;;;;;14.82;6.43;;;8.40;99.90;;;;;;4945278;28;20053;-48
2024/01/28 10:51:20;;;;;;;17.13;7.63;;;8.40;99.10;;;;;;4981582;28;20517;-53
2024/01/28 10:53:47;;;;;;;13.32;6.95;;;8.30;99.00;;;;;;4985870;28;20046;-48
2024/01/28 10:56:13;;;;;;;11.05;5.43;;;8.40;99.30;;;;;;4965047;28;20054;-52
2024/01/28 10:58:40;;;;;;;9.43;4.65;;;8.20;99.50;;;;;;4961209;28;20073;-55
2024/01/28 11:01:07;;;;;;;17.35;8.77;;;8.40;99.10;;;;;;4978110;28;20039;-51
2024/01/28 11:03:34;;;;;;;16.52;9.23;;;8.40;97.90;;;;;;4968789;28;20038;-51
2024/01/28 11:06:00;;;;;;;10.20;5.20;;;8.50;98.10;;;;;;4988513;28;20054;-51
2024/01/28 11:08:27;;;;;;;13.75;4.95;;;8.50;98.50;;;;;;4978236;28;20489;-50
2024/01/28 11:10:53;;;;;;;8.52;3.92;;;8.40;98.30;;;;;;4989126;28;20091;-50
2024/01/28 11:13:19;;;;;;;11.65;5.72;;;8.70;97.60;;;;;;4989135;28;20093;-51
2024/01/28 11:15:46;;;;;;;20.30;8.57;;;;;;;;;;4989434;28;20042;-50
2024/01/28 11:18:13;;;;;;;15.75;6.80;;;;;;;;;;4989614;28;20038;-50
2024/01/28 11:20:39;;;;;;;8.98;4.88;;;9.20;96.30;;;;;;5042695;28;20049;-52
2024/01/28 11:23:13;;;;;;;9.88;4.38;;;9.30;96.60;;;;;;5032251;28;20452;-49
2024/01/28 11:25:40;;;;;;;9.20;4.28;;;9.60;95.50;;;;;;5051166;28;20456;-51
2024/01/28 11:28:06;;;;;;;8.02;3.83;;;9.70;95.20;;;;;;5050937;28;20044;-52
2024/01/28 11:30:34;;;;;;;17.67;7.45;;;9.50;94.90;;;;;;5054048;28;20094;-50
2024/01/28 11:33:16;;;;;;;9.20;5.53;;;9.60;95.50;;;;;;5070940;28;20507;-53
2024/01/28 11:35:45;;;;;;;4.75;3.13;;;11.20;94.50;;;;;;5047033;28;20053;-52
2024/01/28 11:38:18;;;;;;;5.40;3.38;;;;;;;;;;5031973;28;20037;-52
2024/01/28 11:40:49;;;;;;;8.13;3.97;;;12.60;92.70;;;;;;5055004;28;20062;-55
2024/01/28 11:43:16;;;;;;;8.27;4.30;;;12.40;92.10;;;;;;5016484;28;20067;-53
2024/01/28 11:45:42;;;;;;;11.25;7.18;;;;;;;;;;5058531;28;20037;-49
2024/01/28 11:48:09;;;;;;;14.38;7.53;;;13.30;90.80;;;;;;5059458;28;20048;-52
2024/01/28 11:50:35;;;;;;;9.70;5.80;;;13.60;90.80;;;;;;5042125;28;20396;-50
2024/01/28 11:53:01;;;;;;;18.67;10.07;;;13.80;89.10;;;;;;5008650;28;20044;-52
2024/01/28 11:55:26;;;;;;;7.95;3.97;;;14.00;90.00;;;;;;5058378;28;20486;-53
2024/01/28 11:57:52;;;;;;;14.45;8.18;;;14.00;88.00;;;;;;5006545;28;20550;-55
2024/01/28 12:00:19;;;;;;;15.25;5.47;;;;;;;;;;4999041;28;20146;-51
2024/01/28 12:02:45;;;;;;;12.90;6.47;;;14.40;99.90;;;;;;5063238;28;20057;-49
2024/01/28 12:05:11;;;;;;;10.98;5.75;;;14.90;99.90;;;;;;5039623;28;20051;-53
2024/01/28 12:07:37;;;;;;;11.45;6.63;;;14.90;99.90;;;;;;5059252;28;20028;-52
2024/01/28 12:10:06;;;;;;;7.65;4.43;;;;;;;;;;5061200;28;20098;-51
2024/01/28 12:12:34;;;;;;;8.07;4.43;;;14.70;87.90;;;;;;5039491;28;20040;-52
2024/01/28 12:15:12;;;;;;;9.38;5.47;;;14.40;87.30;;;;;;5061296;28;20090;-55
2024/01/28 12:17:39;;;;;;;9.88;4.93;;;14.60;88.20;;;;;;5040195;28;20044;-53
2024/01/28 12:20:07;;;;;;;7.82;3.75;;;14.80;87.80;;;;;;5056041;28;20049;-51
2024/01/28 12:22:40;;;;;;;8.15;3.60;;;;;;;;;;5059373;28;20484;-52
2024/01/28 12:25:09;;;;;;;12.00;5.03;;;;;;;;;;5058869;28;20067;-55
2024/01/28 12:27:36;;;;;;;13.02;5.40;;;;;;;;;;5059328;28;20039;-53
2024/01/28 12:30:03;;;;;;;8.02;3.70;;;13.50;94.90;;;;;;5060546;28;20071;-53
2024/01/28 12:32:30;;;;;;;8.27;3.85;;;;;;;;;;5024756;28;20033;-53
2024/01/28 12:34:57;;;;;;;7.38;3.22;;;;;;;;;;5059226;28;20028;-49
2024/01/28 12:37:24;;;;;;;11.93;4.85;;;;;;;;;;5060788;28;20043;-51
2024/01/28 12:39:50;;;;;;;9.70;4.18;;;;;;;;;;5059657;28;20381;-55
2024/01/28 12:42:18;;;;;;;10.15;4.28;;;;;;;;;;5054756;28;20079;-51
2024/01/28 12:44:44;;;;;;;10.63;4.43;;;13.60;99.90;;;;;;5058092;28;20517;-51
2024/01/28 12:47:10;;;;;;;11.45;4.35;;;;;;;;;;5063750;28;20102;-53
2024/01/28 12:49:36;;;;;;;7.85;3.80;;;13.50;88.90;;;;;;5061900;28;20036;-52
2024/01/28 12:52:02;;;;;;;20.10;13.63;;;13.50;89.40;;;;;;5028507;28;20767;-55
2024/01/28 12:54:28;;;;;;;22.90;11.75;;;13.50;89.10;;;;;;5061317;28;20044;-53